Time;durP1;ratioP1;P1;durP2;ratioP2;P2;SDS_P1;SDS_P2;PMS_P1;PMS_P2;Temp;Humidity;BMP_temperature;BMP_pressure;BME280_temperature;BME280_humidity;BME280_pressure;Samples;Min_cycle;Max_cycle;Signal;HPM_P1;HPM_P2
2022/04/19 00:00:23;;;;;;;8.80;4.43;;;19.10;70.40;;;;;;5068283;28;20078;-66
2022/04/19 00:02:48;;;;;;;8.63;4.80;;;18.70;70.30;;;;;;5074444;28;20052;-67
2022/04/19 00:05:14;;;;;;;8.07;4.95;;;18.90;70.20;;;;;;5090548;28;20060;-66
2022/04/19 00:07:41;;;;;;;8.25;5.25;;;19.00;70.40;;;;;;5052698;28;20499;-67
2022/04/19 00:10:07;;;;;;;7.75;4.95;;;19.00;70.10;;;;;;5087098;28;20098;-66
2022/04/19 00:12:33;;;;;;;6.50;4.65;;;19.00;70.40;;;;;;5036616;28;20131;-67
2022/04/19 00:14:59;;;;;;;8.82;5.47;;;18.90;70.30;;;;;;5063981;28;20128;-67
2022/04/19 00:17:25;;;;;;;8.38;4.88;;;18.80;70.20;;;;;;5066960;28;20054;-67
2022/04/19 00:19:51;;;;;;;8.18;4.95;;;18.80;67.00;;;;;;5058035;28;20045;-66
2022/04/19 00:22:17;;;;;;;7.30;4.75;;;18.80;70.30;;;;;;5054530;28;20036;-66
2022/04/19 00:24:43;;;;;;;7.47;4.85;;;19.00;70.50;;;;;;5069810;28;20447;-67
2022/04/19 00:27:09;;;;;;;8.80;5.55;;;18.80;67.40;;;;;;5052848;28;20055;-67
2022/04/19 00:29:35;;;;;;;7.28;4.78;;;18.90;70.40;;;;;;5055624;28;20123;-66
2022/04/19 00:32:01;;;;;;;9.07;5.25;;;18.60;70.30;;;;;;5055368;28;20049;-67
2022/04/19 00:34:27;;;;;;;7.57;4.25;;;18.80;67.60;;;;;;5073586;28;20128;-67
2022/04/19 00:36:52;;;;;;;8.43;5.00;;;18.70;70.40;;;;;;5066481;28;20112;-67
2022/04/19 00:39:18;;;;;;;8.98;5.03;;;18.70;70.30;;;;;;5088809;28;20048;-67
2022/04/19 00:41:44;;;;;;;7.97;4.68;;;18.70;67.50;;;;;;5054708;28;20045;-66
2022/04/19 00:44:11;;;;;;;8.27;5.05;;;18.60;70.30;;;;;;5066898;28;20136;-67
2022/04/19 00:46:36;;;;;;;8.07;4.85;;;18.80;67.50;;;;;;5073689;28;20051;-67
2022/04/19 00:49:02;;;;;;;7.95;5.30;;;18.50;70.30;;;;;;5071785;28;20040;-67
2022/04/19 00:51:28;;;;;;;9.23;5.03;;;18.70;67.40;;;;;;5055439;28;20049;-67
2022/04/19 00:53:53;;;;;;;8.18;4.80;;;18.70;67.60;;;;;;5035821;28;20053;-67
2022/04/19 00:56:19;;;;;;;9.00;4.70;;;18.70;70.80;;;;;;5053904;28;20186;-67
2022/04/19 00:58:45;;;;;;;8.10;5.05;;;18.70;67.60;;;;;;5052466;28;20040;-68
2022/04/19 01:01:10;;;;;;;7.68;5.20;;;18.50;70.40;;;;;;5054034;28;20119;-68
2022/04/19 01:03:37;;;;;;;8.02;4.55;;;18.60;67.50;;;;;;5053998;28;20390;-67
2022/04/19 01:06:04;;;;;;;7.25;4.43;;;18.90;70.80;;;;;;5055906;28;20056;-67
2022/04/19 01:08:30;;;;;;;9.05;5.03;;;18.60;70.70;;;;;;5072280;28;20060;-67
2022/04/19 01:13:42;;;;;;;6.72;4.35;;;18.90;71.00;;;;;;5037586;28;20515;-67
2022/04/19 01:16:08;;;;;;;6.72;4.18;;;18.70;70.60;;;;;;5051290;28;20140;-67
2022/04/19 01:18:35;;;;;;;7.78;4.93;;;18.60;70.80;;;;;;5051191;28;20056;-66
2022/04/19 01:21:01;;;;;;;7.90;4.72;;;18.70;67.70;;;;;;5050163;28;20435;-67
2022/04/19 01:23:29;;;;;;;9.95;5.13;;;18.60;70.50;;;;;;5049599;28;20041;-67
2022/04/19 01:25:55;;;;;;;7.07;4.30;;;18.60;67.70;;;;;;5051289;28;20140;-66
2022/04/19 01:28:21;;;;;;;8.15;4.65;;;18.50;70.80;;;;;;5067980;28;20045;-66
2022/04/19 01:30:52;;;;;;;7.28;4.70;;;18.70;70.60;;;;;;5050572;28;20053;-67
2022/04/19 01:33:18;;;;;;;8.02;4.93;;;18.70;70.80;;;;;;5033368;28;20095;-67
2022/04/19 01:35:44;;;;;;;9.40;4.65;;;18.40;70.50;;;;;;5051081;28;20076;-67
2022/04/19 01:38:09;;;;;;;9.38;4.03;;;18.70;70.70;;;;;;5068496;28;20522;-67
2022/04/19 01:40:35;;;;;;;8.10;4.53;;;18.60;67.50;;;;;;5050912;28;20049;-67
2022/04/19 01:43:02;;;;;;;8.70;4.97;;;18.60;70.50;;;;;;5066305;28;20048;-65
2022/04/19 01:45:29;;;;;;;7.70;4.65;;;18.50;67.80;;;;;;5050059;28;20076;-67
2022/04/19 01:47:57;;;;;;;9.32;5.05;;;18.50;70.60;;;;;;5050292;28;20049;-67
2022/04/19 01:50:24;;;;;;;7.75;4.82;;;18.60;70.70;;;;;;5058369;28;20383;-67
2022/04/19 01:52:50;;;;;;;7.45;4.72;;;18.40;67.70;;;;;;5056335;28;20106;-67
2022/04/19 01:55:17;;;;;;;7.53;4.82;;;18.50;66.60;;;;;;5054652;28;20044;-67
2022/04/19 01:57:43;;;;;;;8.45;5.00;;;18.30;67.80;;;;;;5060307;28;20044;-67
2022/04/19 02:00:09;;;;;;;8.50;5.22;;;18.60;70.70;;;;;;5072931;28;20482;-67
2022/04/19 02:02:35;;;;;;;8.27;4.97;;;18.20;67.50;;;;;;5073030;28;20091;-67
2022/04/19 02:05:01;;;;;;;8.63;5.05;;;18.40;67.70;;;;;;5066389;28;20044;-67
2022/04/19 02:07:27;;;;;;;7.93;4.97;;;18.30;70.90;;;;;;5053056;28;20041;-66
2022/04/19 02:09:52;;;;;;;8.40;4.60;;;18.40;67.70;;;;;;5051827;28;20040;-66
2022/04/19 02:12:18;;;;;;;7.50;4.45;;;18.50;70.70;;;;;;5053060;28;20051;-67
2022/04/19 02:14:44;;;;;;;8.48;5.47;;;18.60;67.60;;;;;;5054384;28;20506;-65
2022/04/19 02:17:10;;;;;;;7.50;4.88;;;18.50;70.80;;;;;;5052711;28;20057;-66
2022/04/19 02:19:36;;;;;;;7.30;4.88;;;18.40;70.90;;;;;;5053004;28;20052;-67
2022/04/19 02:22:06;;;;;;;8.57;4.82;;;18.40;70.70;;;;;;5051286;28;20398;-67
2022/04/19 02:24:34;;;;;;;7.30;4.80;;;18.30;70.70;;;;;;5051554;28;20037;-65
2022/04/19 02:27:00;;;;;;;8.55;5.40;;;18.30;70.80;;;;;;5054366;28;20045;-65
2022/04/19 02:29:26;;;;;;;7.88;5.05;;;18.30;69.90;;;;;;5052154;28;20033;-63
2022/04/19 02:31:52;;;;;;;8.20;5.03;;;18.30;71.70;;;;;;5053338;28;20048;-64
2022/04/19 02:34:18;;;;;;;8.70;4.97;;;18.20;71.00;;;;;;5052959;28;20045;-62
2022/04/19 02:36:44;;;;;;;7.97;5.05;;;18.30;71.00;;;;;;5054025;28;20037;-65
2022/04/19 02:39:11;;;;;;;10.05;5.15;;;18.30;71.10;;;;;;5052620;28;20033;-64
2022/04/19 02:41:37;;;;;;;8.98;4.68;;;18.10;68.10;;;;;;5085378;28;20057;-65
2022/04/19 02:44:04;;;;;;;8.18;4.75;;;18.10;71.00;;;;;;5056105;28;20049;-63
2022/04/19 02:46:30;;;;;;;10.13;4.85;;;18.20;68.20;;;;;;5056051;28;20045;-63
2022/04/19 02:48:57;;;;;;;9.52;5.32;;;17.90;71.10;;;;;;5066847;28;20045;-64
2022/04/19 02:51:24;;;;;;;9.60;5.22;;;18.20;71.40;;;;;;5076310;28;20055;-63
2022/04/19 02:53:50;;;;;;;7.45;4.60;;;;;;;;;;5074761;28;20063;-64
2022/04/19 02:56:16;;;;;;;8.18;5.20;;;18.00;71.30;;;;;;5076196;28;20048;-64
2022/04/19 02:58:45;;;;;;;8.38;5.40;;;18.00;68.50;;;;;;5067819;28;20044;-62
2022/04/19 03:01:12;;;;;;;9.55;4.97;;;17.70;71.10;;;;;;5055959;28;20391;-64
2022/04/19 03:03:37;;;;;;;9.30;5.13;;;18.10;68.70;;;;;;5056031;28;20039;-64
2022/04/19 03:06:03;;;;;;;9.50;5.25;;;17.90;71.30;;;;;;5056189;28;20123;-65
2022/04/19 03:08:32;;;;;;;11.02;5.30;;;17.90;71.30;;;;;;5056227;28;20110;-65
2022/04/19 03:10:58;;;;;;;9.77;4.97;;;17.90;68.40;;;;;;5056275;28;20436;-62
2022/04/19 03:13:27;;;;;;;10.95;5.22;;;17.80;71.50;;;;;;5055613;28;20072;-64
2022/04/19 03:15:52;;;;;;;10.23;5.22;;;18.00;68.50;;;;;;5065306;28;20398;-64
2022/04/19 03:18:18;;;;;;;8.38;5.05;;;18.10;71.40;;;;;;5069531;28;20056;-65
2022/04/19 03:20:46;;;;;;;7.72;5.00;;;17.90;68.30;;;;;;5056943;28;20476;-64
2022/04/19 03:28:41;;;;;;;8.30;4.60;;;17.90;71.40;;;;;;5055578;28;20403;-65
2022/04/19 03:31:07;;;;;;;9.85;5.60;;;18.00;71.30;;;;;;5055506;28;20170;-64
2022/04/19 03:33:36;;;;;;;10.13;5.32;;;18.10;71.30;;;;;;5070872;28;20510;-65
2022/04/19 03:36:02;;;;;;;8.02;4.85;;;17.90;71.20;;;;;;5037723;28;20138;-64
2022/04/19 03:38:28;;;;;;;8.75;5.40;;;17.90;68.60;;;;;;5053849;28;20495;-64
2022/04/19 03:40:54;;;;;;;8.73;5.35;;;18.00;71.60;;;;;;5067374;28;20045;-64
2022/04/19 03:43:20;;;;;;;8.25;5.20;;;18.10;68.50;;;;;;5053762;28;20483;-65
2022/04/19 03:45:45;;;;;;;8.05;4.85;;;18.00;71.40;;;;;;5037075;28;20094;-64
2022/04/19 03:48:13;;;;;;;9.88;5.20;;;17.90;71.60;;;;;;5087331;28;20053;-63
2022/04/19 03:50:40;;;;;;;7.97;5.30;;;17.90;68.30;;;;;;5055261;28;20398;-65
2022/04/19 03:53:06;;;;;;;9.52;5.78;;;17.90;71.40;;;;;;5055859;28;20041;-64
2022/04/19 03:55:31;;;;;;;8.77;5.50;;;17.80;68.50;;;;;;5053604;28;20081;-65
2022/04/19 03:57:57;;;;;;;8.68;5.40;;;18.00;71.40;;;;;;5071159;28;20095;-65
2022/04/19 04:00:23;;;;;;;9.63;5.15;;;18.00;68.50;;;;;;5056854;28;20040;-64
2022/04/19 04:02:49;;;;;;;10.07;4.90;;;18.10;68.90;;;;;;5063346;28;20190;-64
2022/04/19 04:05:15;;;;;;;9.15;5.15;;;18.00;71.70;;;;;;5053664;28;20041;-65
2022/04/19 04:07:40;;;;;;;8.52;4.57;;;17.90;71.90;;;;;;5053275;28;20128;-65
2022/04/19 04:10:07;;;;;;;8.55;5.15;;;18.10;71.60;;;;;;5053222;28;20049;-65
2022/04/19 04:12:33;;;;;;;9.30;5.30;;;;;;;;;;5047301;28;20055;-66
2022/04/19 04:15:01;;;;;;;10.55;5.55;;;17.90;71.50;;;;;;5064523;28;20105;-66
2022/04/19 04:17:27;;;;;;;9.55;5.40;;;17.80;71.70;;;;;;5054162;28;20072;-66
2022/04/19 04:19:52;;;;;;;8.23;5.00;;;17.80;68.70;;;;;;5054687;28;20049;-64
2022/04/19 04:22:18;;;;;;;9.48;5.53;;;18.10;71.70;;;;;;5055563;28;20097;-66
2022/04/19 04:24:44;;;;;;;10.13;5.65;;;18.00;68.60;;;;;;5054437;28;20049;-65
2022/04/19 04:27:10;;;;;;;8.30;5.22;;;17.80;71.80;;;;;;5053233;28;20052;-65
2022/04/19 04:29:36;;;;;;;9.20;5.53;;;18.00;71.80;;;;;;5036330;28;20048;-65
2022/04/19 04:32:03;;;;;;;12.32;5.72;;;17.90;71.70;;;;;;5072308;28;20125;-65
2022/04/19 04:34:29;;;;;;;9.40;5.45;;;18.10;71.60;;;;;;5059846;28;20047;-66
2022/04/19 04:36:54;;;;;;;9.30;5.28;;;17.80;68.60;;;;;;5052530;28;20053;-65
2022/04/19 04:39:20;;;;;;;9.45;5.82;;;18.10;71.70;;;;;;5054297;28;20037;-65
2022/04/19 04:41:46;;;;;;;9.88;5.38;;;17.80;71.60;;;;;;5036033;28;20048;-63
2022/04/19 04:44:12;;;;;;;10.15;5.25;;;17.90;71.60;;;;;;5055494;28;20033;-65
2022/04/19 04:49:37;;;;;;;9.05;5.43;;;17.90;69.00;;;;;;5053791;28;20049;-64
2022/04/19 04:52:07;;;;;;;8.90;5.78;;;18.00;71.80;;;;;;5054052;28;20154;-65
2022/04/19 04:54:34;;;;;;;9.00;5.32;;;18.00;71.90;;;;;;5055450;28;20047;-64
2022/04/19 04:57:03;;;;;;;10.05;5.35;;;18.00;71.60;;;;;;5053717;28;20040;-64
2022/04/19 04:59:30;;;;;;;12.00;5.57;;;;;;;;;;5053956;28;20049;-65
2022/04/19 05:01:56;;;;;;;9.27;5.63;;;18.20;71.50;;;;;;5053653;28;20044;-66
2022/04/19 05:04:22;;;;;;;9.57;5.90;;;18.10;71.60;;;;;;5065009;28;20137;-61
2022/04/19 05:06:47;;;;;;;9.65;5.80;;;18.20;71.50;;;;;;5054892;28;20485;-65
2022/04/19 05:09:13;;;;;;;9.43;5.43;;;18.30;71.70;;;;;;5053753;28;20040;-65
2022/04/19 05:11:39;;;;;;;9.85;5.78;;;;;;;;;;5053769;28;20049;-65
2022/04/19 05:14:07;;;;;;;12.45;5.78;;;;;;;;;;5064424;28;20089;-64
2022/04/19 05:16:35;;;;;;;9.93;5.55;;;18.30;71.50;;;;;;5058501;28;20124;-64
2022/04/19 05:19:00;;;;;;;10.18;5.78;;;18.30;71.50;;;;;;5053303;28;20057;-65
2022/04/19 05:21:26;;;;;;;11.25;5.57;;;18.40;71.60;;;;;;5053805;28;20126;-64
2022/04/19 05:23:52;;;;;;;11.43;5.90;;;18.70;68.80;;;;;;5053286;28;20059;-65
2022/04/19 05:26:18;;;;;;;10.00;5.15;;;18.50;71.40;;;;;;5054708;28;20060;-64
2022/04/19 05:28:43;;;;;;;11.48;5.22;;;18.70;68.60;;;;;;5051800;28;20045;-63
2022/04/19 05:31:09;;;;;;;9.98;5.30;;;18.90;70.30;;;;;;5051870;28;20045;-66
2022/04/19 05:33:35;;;;;;;8.45;5.03;;;18.90;71.40;;;;;;5068925;28;20051;-61
2022/04/19 05:36:00;;;;;;;8.18;4.55;;;19.20;71.40;;;;;;5053815;28;20040;-63
2022/04/19 05:38:27;;;;;;;8.52;4.57;;;19.20;71.30;;;;;;5059167;28;20482;-62
2022/04/19 05:40:53;;;;;;;9.70;5.07;;;19.20;70.10;;;;;;5055323;28;20048;-64
2022/04/19 05:43:18;;;;;;;9.00;4.60;;;19.40;68.50;;;;;;5056403;28;20052;-64
2022/04/19 05:45:45;;;;;;;9.85;5.80;;;19.50;71.10;;;;;;5073373;28;20051;-62
2022/04/19 05:48:11;;;;;;;9.10;5.18;;;19.80;71.30;;;;;;5056829;28;20048;-62
2022/04/19 05:50:37;;;;;;;10.95;5.03;;;19.70;70.50;;;;;;5085421;28;20041;-62
2022/04/19 05:53:03;;;;;;;10.60;5.55;;;19.90;67.80;;;;;;5085896;28;20417;-63
2022/04/19 05:56:04;;;;;;;12.68;5.05;;;20.20;67.60;;;;;;5058915;28;20040;-63
2022/04/19 05:58:29;;;;;;;9.10;4.93;;;20.20;66.60;;;;;;5060805;28;20080;-62
2022/04/19 06:00:55;;;;;;;9.88;5.25;;;20.10;69.80;;;;;;5052517;28;20069;-62
2022/04/19 06:06:06;;;;;;;10.18;4.97;;;20.40;69.40;;;;;;5052837;28;20045;-62
2022/04/19 06:08:32;;;;;;;10.60;5.97;;;20.40;69.20;;;;;;5057267;28;20115;-61
2022/04/19 06:10:58;;;;;;;10.40;5.47;;;20.60;69.10;;;;;;5072848;28;20569;-63
2022/04/19 06:13:25;;;;;;;10.10;5.20;;;20.50;66.40;;;;;;5063607;28;20390;-62
2022/04/19 06:15:50;;;;;;;10.68;5.47;;;20.60;66.10;;;;;;5074169;28;20107;-63
2022/04/19 06:18:16;;;;;;;9.65;5.45;;;20.70;68.70;;;;;;5058541;28;20086;-63
2022/04/19 06:20:42;;;;;;;9.15;5.85;;;20.70;65.80;;;;;;5059451;28;20048;-64
2022/04/19 06:23:08;;;;;;;8.90;5.10;;;21.00;68.70;;;;;;5055018;28;20394;-63
2022/04/19 06:25:34;;;;;;;11.30;5.78;;;20.90;68.50;;;;;;5056762;28;20060;-62
2022/04/19 06:28:00;;;;;;;11.30;5.50;;;21.00;68.40;;;;;;5038556;28;20044;-63
2022/04/19 06:30:26;;;;;;;11.93;5.63;;;20.90;68.30;;;;;;5058688;28;20060;-63
2022/04/19 06:32:52;;;;;;;10.07;5.40;;;21.20;68.40;;;;;;5047770;28;20055;-62
2022/04/19 06:35:18;;;;;;;10.00;5.35;;;20.90;65.40;;;;;;5075453;28;20036;-62
2022/04/19 06:37:43;;;;;;;9.65;4.95;;;21.30;65.40;;;;;;5075261;28;20441;-62
2022/04/19 06:40:10;;;;;;;6.90;4.53;;;21.20;67.90;;;;;;5072790;28;20045;-62
2022/04/19 06:42:36;;;;;;;7.95;5.20;;;;;;;;;;5055655;28;20036;-67
2022/04/19 06:45:02;;;;;;;8.38;5.10;;;21.50;67.80;;;;;;5072909;28;20508;-66
2022/04/19 06:47:28;;;;;;;10.52;5.35;;;21.50;65.00;;;;;;5062158;28;20045;-66
2022/04/19 06:49:57;;;;;;;8.68;4.72;;;21.50;67.60;;;;;;5054393;28;20049;-62
2022/04/19 06:52:24;;;;;;;8.05;4.80;;;21.80;67.50;;;;;;5057441;28;20507;-66
2022/04/19 06:54:49;;;;;;;7.35;4.90;;;21.80;64.80;;;;;;5066111;28;20044;-66
2022/04/19 06:57:15;;;;;;;7.15;4.70;;;21.70;64.70;;;;;;5057519;28;20056;-66
2022/04/19 06:59:41;;;;;;;7.47;4.80;;;22.00;67.40;;;;;;5054597;28;20486;-68
2022/04/19 07:02:06;;;;;;;7.65;4.60;;;22.00;64.70;;;;;;5055565;28;20045;-66
2022/04/19 07:04:33;;;;;;;9.50;5.07;;;21.90;64.50;;;;;;5056330;28;20048;-66
2022/04/19 07:06:58;;;;;;;8.05;5.03;;;21.90;66.90;;;;;;5057402;28;20037;-66
2022/04/19 07:09:24;;;;;;;9.52;4.72;;;22.00;67.00;;;;;;5055657;28;20135;-67
2022/04/19 07:11:51;;;;;;;11.32;5.35;;;;;;;;;;5055413;28;20102;-64
2022/04/19 07:14:17;;;;;;;7.35;4.57;;;22.00;66.70;;;;;;5075570;28;20123;-66
2022/04/19 07:16:43;;;;;;;10.45;5.13;;;22.10;63.00;;;;;;5075862;28;20136;-66
2022/04/19 07:19:08;;;;;;;12.07;5.18;;;21.90;64.10;;;;;;5057188;28;20049;-66
2022/04/19 07:27:03;;;;;;;8.45;3.88;;;22.30;66.40;;;;;;5053458;28;20053;-66
2022/04/19 07:29:29;;;;;;;7.60;4.30;;;22.10;63.50;;;;;;5054861;28;20403;-66
2022/04/19 07:31:56;;;;;;;8.90;4.72;;;22.10;63.20;;;;;;5055397;28;20127;-66
2022/04/19 07:34:22;;;;;;;8.05;4.53;;;22.20;66.20;;;;;;5055485;28;20040;-67
2022/04/19 07:36:48;;;;;;;7.38;4.20;;;22.20;66.10;;;;;;5055568;28;20057;-67
2022/04/19 07:39:14;;;;;;;7.55;3.90;;;22.00;63.30;;;;;;5055327;28;20095;-66
2022/04/19 07:41:39;;;;;;;8.57;3.90;;;22.50;63.40;;;;;;5055000;28;20041;-66
2022/04/19 07:44:06;;;;;;;5.90;3.50;;;22.30;65.70;;;;;;5055596;28;20107;-66
2022/04/19 07:46:33;;;;;;;7.60;3.22;;;22.40;65.60;;;;;;5053857;28;20055;-67
2022/04/19 07:48:59;;;;;;;8.05;3.85;;;22.40;65.30;;;;;;5053036;28;20049;-64
2022/04/19 07:51:25;;;;;;;9.60;3.97;;;22.60;62.80;;;;;;5038399;28;20048;-66
2022/04/19 07:53:50;;;;;;;10.50;4.13;;;22.20;65.20;;;;;;5088024;28;20142;-66
2022/04/19 07:56:16;;;;;;;15.10;4.10;;;22.50;62.60;;;;;;5053634;28;20497;-67
2022/04/19 07:58:47;;;;;;;13.25;4.93;;;22.60;65.20;;;;;;5053781;28;20044;-66
2022/04/19 08:01:16;;;;;;;10.88;3.53;;;22.30;65.00;;;;;;5056313;28;20045;-66
2022/04/19 08:03:42;;;;;;;10.43;3.30;;;22.60;61.20;;;;;;5053873;28;20052;-66
2022/04/19 08:06:08;;;;;;;8.48;3.30;;;22.70;62.30;;;;;;5053212;28;20049;-67
2022/04/19 08:08:35;;;;;;;7.13;3.50;;;22.80;64.90;;;;;;5070084;28;20049;-66
2022/04/19 08:11:01;;;;;;;8.32;3.15;;;22.60;64.70;;;;;;5056540;28;20114;-66
2022/04/19 08:13:26;;;;;;;17.23;3.80;;;22.50;64.60;;;;;;5054738;28;20045;-66
2022/04/19 08:15:52;;;;;;;5.95;2.97;;;22.50;61.70;;;;;;5053139;28;20049;-66
2022/04/19 08:18:19;;;;;;;8.70;2.72;;;22.50;64.30;;;;;;5069895;28;20461;-67
2022/04/19 08:20:45;;;;;;;7.43;3.08;;;22.70;61.30;;;;;;5054120;28;20056;-66
2022/04/19 08:23:11;;;;;;;5.75;2.55;;;22.80;61.80;;;;;;5051893;28;20074;-66
2022/04/19 08:25:37;;;;;;;7.40;2.92;;;22.70;61.70;;;;;;5073355;28;20059;-67
2022/04/19 08:28:03;;;;;;;7.28;2.90;;;22.70;64.20;;;;;;5070477;28;20200;-67
2022/04/19 08:30:29;;;;;;;6.20;2.83;;;22.60;61.40;;;;;;5053301;28;20466;-67
2022/04/19 08:32:55;;;;;;;4.93;2.50;;;22.50;61.40;;;;;;5053915;28;20080;-67
2022/04/19 08:35:21;;;;;;;8.18;2.90;;;22.70;64.20;;;;;;5053587;28;20052;-66
2022/04/19 08:37:46;;;;;;;4.40;2.50;;;22.50;61.40;;;;;;5053991;28;20049;-66
2022/04/19 08:40:13;;;;;;;6.63;3.05;;;22.70;64.00;;;;;;5053932;28;20044;-67
2022/04/19 08:42:40;;;;;;;7.80;2.92;;;22.70;64.00;;;;;;5054993;28;20083;-67
2022/04/19 08:45:07;;;;;;;6.90;3.15;;;22.70;64.00;;;;;;5056400;28;20099;-67
2022/04/19 08:47:46;;;;;;;6.65;3.53;;;22.50;63.80;;;;;;5071702;28;20152;-68
2022/04/19 08:50:13;;;;;;;11.48;3.38;;;22.60;61.60;;;;;;5064657;28;20071;-67
2022/04/19 08:52:40;;;;;;;7.50;2.85;;;22.50;61.50;;;;;;5069160;28;20072;-67
2022/04/19 08:57:51;;;;;;;6.47;3.17;;;22.70;63.90;;;;;;5053623;28;20382;-67
2022/04/19 09:00:27;;;;;;;10.90;3.15;;;22.60;63.60;;;;;;5054047;28;20060;-67
2022/04/19 09:02:58;;;;;;;4.95;2.85;;;22.40;63.80;;;;;;5061607;28;20083;-67
2022/04/19 09:05:27;;;;;;;6.40;3.08;;;22.80;64.00;;;;;;5073625;28;20626;-66
2022/04/19 09:07:55;;;;;;;5.93;3.05;;;22.70;61.50;;;;;;5073434;28;20052;-67
2022/04/19 09:10:30;;;;;;;8.65;3.55;;;22.70;61.50;;;;;;5057883;28;20091;-66
2022/04/19 09:13:05;;;;;;;6.68;3.00;;;22.50;60.00;;;;;;5070590;28;20375;-67
2022/04/19 09:15:37;;;;;;;5.53;3.05;;;22.80;60.30;;;;;;5069035;28;20129;-67
2022/04/19 09:18:14;;;;;;;5.80;3.20;;;22.60;64.00;;;;;;5051256;28;20052;-65
2022/04/19 09:20:40;;;;;;;8.43;3.20;;;22.50;63.90;;;;;;5053136;28;20041;-67
2022/04/19 09:23:07;;;;;;;10.82;3.50;;;22.60;64.10;;;;;;5053205;28;20053;-71
2022/04/19 09:25:33;;;;;;;10.27;3.63;;;22.50;64.10;;;;;;5053043;28;20092;-68
2022/04/19 09:28:00;;;;;;;12.25;3.65;;;22.50;61.30;;;;;;5062700;28;20083;-69
2022/04/19 09:30:32;;;;;;;10.52;3.63;;;22.40;64.40;;;;;;5067038;28;20051;-65
2022/04/19 09:33:03;;;;;;;8.23;3.40;;;22.30;64.30;;;;;;5066560;28;20072;-71
2022/04/19 09:35:30;;;;;;;11.38;3.45;;;22.60;60.50;;;;;;5073420;28;20429;-75
2022/04/19 09:37:56;;;;;;;10.93;3.92;;;22.40;64.20;;;;;;5053634;28;20048;-67
2022/04/19 09:40:38;;;;;;;7.68;3.38;;;22.40;64.20;;;;;;5051590;28;20037;-71
2022/04/19 09:43:11;;;;;;;8.07;3.55;;;22.30;64.10;;;;;;5053086;28;20056;-74
2022/04/19 09:45:47;;;;;;;7.40;3.42;;;22.50;64.80;;;;;;5051814;28;20472;-74
2022/04/19 09:48:24;;;;;;;8.57;3.17;;;22.40;64.30;;;;;;5053359;28;20048;-64
2022/04/19 09:50:51;;;;;;;5.95;3.13;;;22.50;64.40;;;;;;5070340;28;20056;-64
2022/04/19 09:53:17;;;;;;;9.70;3.20;;;22.20;61.70;;;;;;5090254;28;20393;-63
2022/04/19 09:55:50;;;;;;;9.43;3.35;;;22.30;61.70;;;;;;5057664;28;20107;-63
2022/04/19 09:58:16;;;;;;;7.22;3.20;;;22.30;64.30;;;;;;5056303;28;20506;-63
2022/04/19 10:00:45;;;;;;;8.00;2.92;;;22.20;64.20;;;;;;5056951;28;20052;-62
2022/04/19 10:08:45;;;;;;;7.78;3.25;;;;;;;;;;5057122;28;20053;-62
2022/04/19 10:11:11;;;;;;;10.75;3.47;;;22.40;64.60;;;;;;5057351;28;20048;-62
2022/04/19 10:13:38;;;;;;;9.25;3.40;;;22.00;64.40;;;;;;5055919;28;20121;-65
2022/04/19 10:16:04;;;;;;;9.15;3.30;;;22.30;64.50;;;;;;5055427;28;20045;-61
2022/04/19 10:18:30;;;;;;;6.53;2.95;;;22.10;61.80;;;;;;5055507;28;20053;-64
2022/04/19 10:20:58;;;;;;;7.60;2.88;;;22.20;61.50;;;;;;5056870;28;20056;-64
2022/04/19 10:23:40;;;;;;;8.25;3.20;;;22.20;62.00;;;;;;5055715;28;20055;-62
2022/04/19 10:26:32;;;;;;;7.32;3.45;;;22.00;59.90;;;;;;5057099;28;20479;-64
2022/04/19 10:28:58;;;;;;;6.55;3.08;;;22.10;64.80;;;;;;5052772;28;20099;-61
2022/04/19 10:31:37;;;;;;;9.57;3.28;;;21.90;64.90;;;;;;5055368;28;20049;-62
2022/04/19 10:34:06;;;;;;;6.40;3.03;;;22.10;61.30;;;;;;5056413;28;20052;-62
2022/04/19 10:36:39;;;;;;;8.23;3.60;;;22.00;65.30;;;;;;5056215;28;20041;-62
2022/04/19 10:39:11;;;;;;;9.88;3.50;;;21.90;62.40;;;;;;5057981;28;20102;-62
2022/04/19 10:41:57;;;;;;;5.40;3.17;;;22.10;65.10;;;;;;5056647;28;20106;-61
2022/04/19 10:44:30;;;;;;;5.20;2.63;;;21.70;65.10;;;;;;5061575;28;20041;-63
2022/04/19 10:47:31;;;;;;;14.02;3.65;;;22.30;62.90;;;;;;5076055;28;20055;-62
2022/04/19 10:50:04;;;;;;;12.75;3.45;;;22.10;65.30;;;;;;5052235;28;20041;-62
2022/04/19 10:52:45;;;;;;;7.70;3.30;;;21.90;65.30;;;;;;5037541;28;20611;-62
2022/04/19 10:55:18;;;;;;;6.40;3.08;;;21.70;65.50;;;;;;5054011;28;20465;-62
2022/04/19 11:00:41;;;;;;;5.97;3.35;;;21.90;65.70;;;;;;5051798;28;20041;-71
2022/04/19 11:03:10;;;;;;;6.25;3.30;;;22.00;61.60;;;;;;5034399;28;20148;-70
2022/04/19 11:05:45;;;;;;;8.95;2.90;;;21.80;65.50;;;;;;5037080;28;20049;-64
2022/04/19 11:08:25;;;;;;;8.93;2.75;;;22.00;65.80;;;;;;5052929;28;20052;-72
2022/04/19 11:11:04;;;;;;;7.47;2.70;;;21.80;65.90;;;;;;5027543;28;20414;-64
2022/04/19 11:13:35;;;;;;;5.45;2.42;;;22.10;63.60;;;;;;5033726;28;20046;-64
2022/04/19 11:16:07;;;;;;;5.32;2.63;;;21.90;66.00;;;;;;5033677;28;20049;-62
2022/04/19 11:18:34;;;;;;;5.97;2.20;;;;;;;;;;5053235;28;20053;-64
2022/04/19 11:21:04;;;;;;;4.65;2.60;;;21.80;61.10;;;;;;5031364;28;20139;-70
2022/04/19 11:23:42;;;;;;;6.82;2.40;;;21.90;63.50;;;;;;5057988;28;20059;-63
2022/04/19 11:26:09;;;;;;;5.53;2.50;;;21.80;65.80;;;;;;5074086;28;20057;-64
2022/04/19 11:28:34;;;;;;;5.45;2.83;;;22.10;65.90;;;;;;5041215;28;20088;-61
2022/04/19 11:31:00;;;;;;;7.10;2.78;;;22.00;65.90;;;;;;5072633;28;20055;-62
2022/04/19 11:33:28;;;;;;;5.75;2.50;;;22.00;63.10;;;;;;5056979;28;20052;-63
2022/04/19 11:36:20;;;;;;;3.92;2.47;;;22.00;65.90;;;;;;5064580;28;20124;-64
2022/04/19 11:38:47;;;;;;;4.80;2.47;;;22.10;66.10;;;;;;5055948;28;20063;-63
2022/04/19 11:46:46;;;;;;;5.28;2.50;;;21.70;65.90;;;;;;5074176;28;20052;-62
2022/04/19 11:49:20;;;;;;;5.85;2.50;;;21.80;66.50;;;;;;5055348;28;20447;-63
2022/04/19 11:51:47;;;;;;;8.10;2.70;;;21.70;65.20;;;;;;5054930;28;20053;-65
2022/04/19 11:54:27;;;;;;;3.88;2.20;;;21.80;66.70;;;;;;5069840;28;20033;-63
2022/04/19 11:56:54;;;;;;;6.47;2.60;;;21.90;63.40;;;;;;5063323;28;20401;-66
2022/04/19 11:59:30;;;;;;;6.07;2.78;;;21.90;66.80;;;;;;5055120;28;20040;-61
2022/04/19 12:01:56;;;;;;;6.88;2.20;;;21.90;64.70;;;;;;5054522;28;20053;-65
2022/04/19 12:04:22;;;;;;;5.03;2.50;;;22.00;67.70;;;;;;5068818;28;20036;-75
2022/04/19 12:07:01;;;;;;;10.00;3.13;;;21.90;67.10;;;;;;5069909;28;20029;-72
2022/04/19 12:09:26;;;;;;;5.65;2.38;;;21.90;64.70;;;;;;5068790;28;20036;-71
2022/04/19 12:11:52;;;;;;;7.28;2.72;;;21.90;66.90;;;;;;5073541;28;20359;-66
2022/04/19 12:14:28;;;;;;;7.55;2.63;;;21.90;64.10;;;;;;5074482;28;20521;-68
2022/04/19 12:17:00;;;;;;;6.53;2.40;;;21.90;67.30;;;;;;5073153;28;20502;-69
2022/04/19 12:19:35;;;;;;;6.07;2.63;;;21.90;63.20;;;;;;5074348;28;20083;-70
2022/04/19 12:22:02;;;;;;;6.30;2.95;;;21.80;63.30;;;;;;5074607;28;20056;-71
2022/04/19 12:24:32;;;;;;;6.15;3.33;;;21.60;67.00;;;;;;5074568;28;20044;-62
2022/04/19 12:27:06;;;;;;;6.35;2.65;;;21.90;67.10;;;;;;5069984;28;20072;-71
2022/04/19 12:29:36;;;;;;;4.82;2.75;;;22.00;63.50;;;;;;5054246;28;20053;-71
2022/04/19 12:32:03;;;;;;;5.43;3.03;;;22.00;67.20;;;;;;5052958;28;20123;-71
2022/04/19 12:34:35;;;;;;;5.80;2.75;;;21.80;64.20;;;;;;5054474;28;20506;-70
2022/04/19 12:37:05;;;;;;;5.00;2.78;;;21.90;63.10;;;;;;5054413;28;20044;-68
2022/04/19 12:39:31;;;;;;;5.75;2.78;;;21.60;64.50;;;;;;5054030;28;20557;-70
2022/04/19 12:42:07;;;;;;;6.05;2.95;;;21.80;64.10;;;;;;5052849;28;20045;-70
2022/04/19 12:44:35;;;;;;;6.55;3.13;;;21.80;63.30;;;;;;5068373;28;20040;-71
2022/04/19 12:47:04;;;;;;;6.00;2.88;;;21.70;64.30;;;;;;5074321;28;20044;-66
2022/04/19 12:49:30;;;;;;;5.82;2.70;;;21.80;67.70;;;;;;5073762;28;20036;-71
2022/04/19 12:52:06;;;;;;;5.95;3.10;;;22.00;65.00;;;;;;5072626;28;20498;-71
2022/04/19 12:54:33;;;;;;;4.45;2.60;;;21.90;67.50;;;;;;5073159;28;20056;-69
2022/04/19 12:57:01;;;;;;;8.02;3.25;;;21.90;64.90;;;;;;5073635;28;20045;-64
2022/04/19 12:59:33;;;;;;;6.88;3.15;;;21.70;67.50;;;;;;5056828;28;20044;-68
2022/04/19 13:01:59;;;;;;;4.70;2.70;;;21.70;67.70;;;;;;5054366;28;20053;-65
2022/04/19 13:04:25;;;;;;;12.88;3.00;;;21.60;64.80;;;;;;5059235;28;20570;-70
2022/04/19 13:12:22;;;;;;;6.70;2.97;;;21.80;67.50;;;;;;5067621;28;20445;-71
2022/04/19 13:14:52;;;;;;;5.03;2.72;;;21.60;67.80;;;;;;5068986;28;20056;-70
2022/04/19 13:17:18;;;;;;;7.30;3.10;;;21.80;68.60;;;;;;5055709;28;20490;-70
2022/04/19 13:19:44;;;;;;;8.10;3.25;;;21.90;65.10;;;;;;5073634;28;20387;-72
2022/04/19 13:22:09;;;;;;;7.88;3.30;;;21.90;68.30;;;;;;5073335;28;20048;-66
2022/04/19 13:24:36;;;;;;;7.30;3.58;;;21.80;65.30;;;;;;5071476;28;20105;-71
2022/04/19 13:27:03;;;;;;;7.65;3.50;;;21.80;68.30;;;;;;5070791;28;20119;-70
2022/04/19 13:29:29;;;;;;;11.50;3.70;;;21.70;68.30;;;;;;5069048;28;20045;-68
2022/04/19 13:31:55;;;;;;;10.05;3.20;;;21.60;68.40;;;;;;5052212;28;20059;-69